createdAt,value
2022-08-09T00:04:24.948Z,4.70
2022-08-09T00:14:22.143Z,4.70
2022-08-09T00:24:20.695Z,5.20
2022-08-09T00:34:26.170Z,5.30
2022-08-09T00:44:27.002Z,4.90
2022-08-09T00:54:31.299Z,4.60
2022-08-09T01:04:24.707Z,4.70
2022-08-09T01:14:24.506Z,4.90
2022-08-09T01:24:29.483Z,4.90
2022-08-09T01:34:29.118Z,4.80
2022-08-09T01:44:28.737Z,5.10
2022-08-09T01:54:28.421Z,4.90
2022-08-09T02:04:28.288Z,4.80
2022-08-09T02:14:33.428Z,4.60
2022-08-09T02:24:33.057Z,4.60
2022-08-09T02:34:41.125Z,4.60
2022-08-09T02:44:32.597Z,4.60
2022-08-09T02:54:31.941Z,4.50
2022-08-09T03:04:37.249Z,5.30
2022-08-09T03:14:36.888Z,4.50
2022-08-09T03:24:42.892Z,4.20
2022-08-09T03:34:36.124Z,4.70
2022-08-09T03:44:35.628Z,4.30
2022-08-09T03:54:38.316Z,4.50
2022-08-09T04:04:41.014Z,4.70
2022-08-09T04:14:54.359Z,4.70
2022-08-09T04:24:40.096Z,5.00
2022-08-09T04:34:39.578Z,4.60
2022-08-09T04:44:39.212Z,4.60
2022-08-09T04:54:39.066Z,4.70
2022-08-09T05:04:44.197Z,4.50
2022-08-09T05:14:43.970Z,4.90
2022-08-09T05:24:43.471Z,5.00
2022-08-09T05:34:45.680Z,5.30
2022-08-09T05:44:42.738Z,5.20
2022-08-09T05:54:42.364Z,5.00
2022-08-09T06:04:47.510Z,4.50
2022-08-09T06:14:47.143Z,4.70
2022-08-09T06:24:46.778Z,4.90
2022-08-09T06:34:49.009Z,4.50
2022-08-09T06:44:46.015Z,4.30
2022-08-09T06:54:51.305Z,4.90
2022-08-09T07:04:50.772Z,4.50
2022-08-09T07:14:50.986Z,5.00
2022-08-09T07:24:50.038Z,5.00
2022-08-09T07:34:49.689Z,5.10
2022-08-09T07:44:57.348Z,5.40
2022-08-09T07:54:54.687Z,5.10
2022-08-09T08:04:54.132Z,5.20
2022-08-09T08:14:54.080Z,5.70
2022-08-09T08:24:59.049Z,5.00
2022-08-09T08:34:59.201Z,5.20
2022-08-09T08:44:58.188Z,4.90
2022-08-09T08:54:57.830Z,4.80
2022-08-09T09:05:06.302Z,5.30
2022-08-09T09:15:02.923Z,5.30
2022-08-09T09:26:00.757Z,5.40
2022-08-09T09:35:02.120Z,5.20
2022-08-09T09:45:08.225Z,5.40
2022-08-09T09:55:08.048Z,5.30
2022-08-09T10:05:06.480Z,5.70
2022-08-09T10:15:17.335Z,6.00
2022-08-09T10:25:14.146Z,5.60
2022-08-09T10:35:10.764Z,6.00
2022-08-09T10:45:15.898Z,5.60
2022-08-09T10:55:15.534Z,5.80
2022-08-09T11:05:24.782Z,5.90
2022-08-09T11:15:18.517Z,5.70
2022-08-09T11:25:21.442Z,5.70
2022-08-09T11:35:22.740Z,5.60
2022-08-09T11:45:19.813Z,6.00
2022-08-09T11:55:34.837Z,5.70
2022-08-09T12:05:24.511Z,5.80
2022-08-09T12:15:49.397Z,5.80
2022-08-09T12:25:31.745Z,5.80
2022-08-09T12:35:29.069Z,5.80
2022-08-09T12:45:33.167Z,5.70
2022-08-09T12:56:11.187Z,5.60
2022-08-09T13:05:35.619Z,5.70
2022-08-09T13:15:38.540Z,5.50
2022-08-09T13:25:41.734Z,5.50
2022-08-09T13:36:24.902Z,5.70
2022-08-09T13:46:08.271Z,5.50
2022-08-09T13:55:42.499Z,5.80
2022-08-09T14:05:57.913Z,6.10
2022-08-09T14:16:07.551Z,5.60
2022-08-09T14:25:46.852Z,5.90
2022-08-09T14:35:53.441Z,5.90
2022-08-09T14:46:40.823Z,6.10
2022-08-09T14:55:56.731Z,5.60
2022-08-09T15:06:00.118Z,5.70
2022-08-09T15:15:56.285Z,5.90
2022-08-09T15:26:01.413Z,6.00
2022-08-09T15:36:01.860Z,5.80
2022-08-09T15:46:08.311Z,5.70
2022-08-09T15:56:28.907Z,5.90
2022-08-09T16:06:16.223Z,5.90
2022-08-09T16:16:17.363Z,5.60
2022-08-09T16:26:19.855Z,6.00
2022-08-09T16:36:18.565Z,5.60
2022-08-09T16:46:14.930Z,5.20
2022-08-09T16:56:20.065Z,5.60
2022-08-09T17:06:28.671Z,6.00
2022-08-09T17:16:24.790Z,6.00
2022-08-09T17:26:29.374Z,5.70
2022-08-09T17:36:24.043Z,5.50
2022-08-09T17:46:34.327Z,5.50
2022-08-09T17:56:32.556Z,5.50
2022-08-09T18:06:31.482Z,5.40
2022-08-09T18:16:34.039Z,5.60
2022-08-09T18:26:33.648Z,5.50
2022-08-09T18:36:38.770Z,5.40
2022-08-09T18:46:45.577Z,5.30
2022-08-09T18:56:38.019Z,5.70
2022-08-09T19:06:43.517Z,5.70
2022-08-09T19:16:42.798Z,5.10
2022-08-09T19:26:42.384Z,5.50
2022-08-09T19:36:47.521Z,5.40
2022-08-09T19:46:50.427Z,5.70
2022-08-09T19:56:46.778Z,5.30
2022-08-09T20:06:51.909Z,5.40
2022-08-09T20:16:54.085Z,5.20
2022-08-09T20:26:51.140Z,5.30
2022-08-09T20:36:56.268Z,5.10
2022-08-09T20:46:56.143Z,5.50
2022-08-09T20:56:55.488Z,5.40
2022-08-09T21:07:11.170Z,5.30
2022-08-09T21:17:00.422Z,4.70
2022-08-09T21:26:59.824Z,4.80
2022-08-09T21:36:59.460Z,4.90
2022-08-09T21:47:04.598Z,4.80
2022-08-09T21:57:04.343Z,4.90
2022-08-09T22:07:04.734Z,4.80
2022-08-09T22:17:08.934Z,4.70
2022-08-09T22:27:08.568Z,5.30
2022-08-09T22:37:08.187Z,4.70
2022-08-09T22:48:05.645Z,4.60
2022-08-09T22:57:12.932Z,4.80
2022-08-09T23:07:13.859Z,4.80
2022-08-09T23:17:12.158Z,4.90
2022-08-09T23:27:11.773Z,4.70
2022-08-09T23:37:17.112Z,4.60
2022-08-09T23:47:16.480Z,4.40
2022-08-09T23:57:16.096Z,4.60
